sensor_id;sensor_type;location;lat;lon;timestamp;P1;durP1;ratioP1;P2;durP2;ratioP2
22571;SDS011;11452;53.368;14.658;2023-03-14T00:01:43;2.03;;;1.77;;
22571;SDS011;11452;53.368;14.658;2023-03-14T00:06:48;2.60;;;2.40;;
22571;SDS011;11452;53.368;14.658;2023-03-14T00:11:54;2.03;;;1.80;;
22571;SDS011;11452;53.368;14.658;2023-03-14T00:17:00;2.47;;;2.10;;
22571;SDS011;11452;53.368;14.658;2023-03-14T00:22:05;3.60;;;2.37;;
22571;SDS011;11452;53.368;14.658;2023-03-14T00:27:11;2.77;;;2.27;;
22571;SDS011;11452;53.368;14.658;2023-03-14T00:32:16;2.73;;;2.40;;
22571;SDS011;11452;53.368;14.658;2023-03-14T00:37:22;2.90;;;2.67;;
22571;SDS011;11452;53.368;14.658;2023-03-14T00:42:27;3.97;;;2.77;;
22571;SDS011;11452;53.368;14.658;2023-03-14T00:47:33;2.33;;;1.60;;
22571;SDS011;11452;53.368;14.658;2023-03-14T00:52:39;1.70;;;1.43;;
22571;SDS011;11452;53.368;14.658;2023-03-14T00:57:44;2.37;;;1.90;;
22571;SDS011;11452;53.368;14.658;2023-03-14T01:02:50;2.30;;;1.70;;
22571;SDS011;11452;53.368;14.658;2023-03-14T01:07:55;2.43;;;1.60;;
22571;SDS011;11452;53.368;14.658;2023-03-14T01:13:02;2.40;;;1.43;;
22571;SDS011;11452;53.368;14.658;2023-03-14T01:18:08;1.63;;;1.50;;
22571;SDS011;11452;53.368;14.658;2023-03-14T01:23:13;1.80;;;1.40;;
22571;SDS011;11452;53.368;14.658;2023-03-14T01:28:19;2.13;;;1.70;;
22571;SDS011;11452;53.368;14.658;2023-03-14T01:33:24;1.97;;;1.17;;
22571;SDS011;11452;53.368;14.658;2023-03-14T01:38:30;1.60;;;1.50;;
22571;SDS011;11452;53.368;14.658;2023-03-14T01:43:38;3.37;;;1.30;;
22571;SDS011;11452;53.368;14.658;2023-03-14T01:48:45;2.10;;;0.90;;
22571;SDS011;11452;53.368;14.658;2023-03-14T01:53:57;2.23;;;1.20;;
22571;SDS011;11452;53.368;14.658;2023-03-14T01:59:12;1.50;;;1.20;;
22571;SDS011;11452;53.368;14.658;2023-03-14T02:04:18;1.60;;;1.50;;
22571;SDS011;11452;53.368;14.658;2023-03-14T02:09:25;1.50;;;1.40;;
22571;SDS011;11452;53.368;14.658;2023-03-14T02:14:32;1.63;;;1.00;;
22571;SDS011;11452;53.368;14.658;2023-03-14T02:20:07;1.23;;;1.03;;
22571;SDS011;11452;53.368;14.658;2023-03-14T02:30:48;1.20;;;1.10;;
22571;SDS011;11452;53.368;14.658;2023-03-14T02:36:03;1.30;;;1.20;;
22571;SDS011;11452;53.368;14.658;2023-03-14T02:41:13;1.03;;;0.93;;
22571;SDS011;11452;53.368;14.658;2023-03-14T02:46:21;1.30;;;0.90;;
22571;SDS011;11452;53.368;14.658;2023-03-14T02:51:27;1.40;;;1.30;;
22571;SDS011;11452;53.368;14.658;2023-03-14T02:56:34;0.90;;;0.90;;
22571;SDS011;11452;53.368;14.658;2023-03-14T03:01:42;1.80;;;0.80;;
22571;SDS011;11452;53.368;14.658;2023-03-14T03:06:48;0.90;;;0.90;;
22571;SDS011;11452;53.368;14.658;2023-03-14T03:11:53;2.07;;;1.00;;
22571;SDS011;11452;53.368;14.658;2023-03-14T03:17:00;3.50;;;1.27;;
22571;SDS011;11452;53.368;14.658;2023-03-14T03:22:06;1.37;;;1.00;;
22571;SDS011;11452;53.368;14.658;2023-03-14T03:27:11;1.50;;;1.07;;
22571;SDS011;11452;53.368;14.658;2023-03-14T03:32:17;4.93;;;1.23;;
22571;SDS011;11452;53.368;14.658;2023-03-14T03:37:23;0.83;;;0.73;;
22571;SDS011;11452;53.368;14.658;2023-03-14T03:42:28;1.07;;;0.90;;
22571;SDS011;11452;53.368;14.658;2023-03-14T03:47:34;1.60;;;0.90;;
22571;SDS011;11452;53.368;14.658;2023-03-14T03:52:40;1.03;;;0.80;;
22571;SDS011;11452;53.368;14.658;2023-03-14T03:57:45;1.30;;;0.97;;
22571;SDS011;11452;53.368;14.658;2023-03-14T04:02:51;0.93;;;0.90;;
22571;SDS011;11452;53.368;14.658;2023-03-14T04:07:58;1.43;;;0.80;;
22571;SDS011;11452;53.368;14.658;2023-03-14T04:13:05;1.33;;;1.00;;
22571;SDS011;11452;53.368;14.658;2023-03-14T04:18:14;1.50;;;0.97;;
22571;SDS011;11452;53.368;14.658;2023-03-14T04:23:19;0.87;;;0.80;;
22571;SDS011;11452;53.368;14.658;2023-03-14T04:28:27;0.97;;;0.87;;
22571;SDS011;11452;53.368;14.658;2023-03-14T04:33:35;1.13;;;1.03;;
22571;SDS011;11452;53.368;14.658;2023-03-14T04:38:42;1.50;;;1.00;;
22571;SDS011;11452;53.368;14.658;2023-03-14T04:43:49;1.80;;;1.20;;
22571;SDS011;11452;53.368;14.658;2023-03-14T04:48:56;1.20;;;0.90;;
22571;SDS011;11452;53.368;14.658;2023-03-14T04:54:02;1.77;;;1.30;;
22571;SDS011;11452;53.368;14.658;2023-03-14T04:59:07;2.27;;;1.23;;
22571;SDS011;11452;53.368;14.658;2023-03-14T05:04:15;2.17;;;1.40;;
22571;SDS011;11452;53.368;14.658;2023-03-14T05:09:25;2.20;;;1.17;;
22571;SDS011;11452;53.368;14.658;2023-03-14T05:14:48;3.10;;;1.10;;
22571;SDS011;11452;53.368;14.658;2023-03-14T05:19:55;2.00;;;1.47;;
22571;SDS011;11452;53.368;14.658;2023-03-14T05:25:11;2.13;;;1.00;;
22571;SDS011;11452;53.368;14.658;2023-03-14T05:30:28;0.93;;;0.90;;
22571;SDS011;11452;53.368;14.658;2023-03-14T05:35:42;1.30;;;0.87;;
22571;SDS011;11452;53.368;14.658;2023-03-14T05:40:52;1.53;;;1.00;;
22571;SDS011;11452;53.368;14.658;2023-03-14T05:46:12;1.20;;;1.07;;
22571;SDS011;11452;53.368;14.658;2023-03-14T05:51:22;1.03;;;0.70;;
22571;SDS011;11452;53.368;14.658;2023-03-14T05:56:38;2.67;;;1.50;;
22571;SDS011;11452;53.368;14.658;2023-03-14T06:01:45;2.67;;;1.60;;
22571;SDS011;11452;53.368;14.658;2023-03-14T06:06:53;1.30;;;1.20;;
22571;SDS011;11452;53.368;14.658;2023-03-14T06:11:58;2.23;;;1.40;;
22571;SDS011;11452;53.368;14.658;2023-03-14T06:17:06;3.10;;;2.00;;
22571;SDS011;11452;53.368;14.658;2023-03-14T06:22:13;1.90;;;1.53;;
22571;SDS011;11452;53.368;14.658;2023-03-14T06:27:19;1.70;;;1.60;;
22571;SDS011;11452;53.368;14.658;2023-03-14T06:32:26;1.77;;;1.47;;
22571;SDS011;11452;53.368;14.658;2023-03-14T06:37:33;1.93;;;1.10;;
22571;SDS011;11452;53.368;14.658;2023-03-14T06:42:39;1.53;;;1.43;;
22571;SDS011;11452;53.368;14.658;2023-03-14T06:47:45;1.77;;;1.50;;
22571;SDS011;11452;53.368;14.658;2023-03-14T06:52:51;1.50;;;1.20;;
22571;SDS011;11452;53.368;14.658;2023-03-14T06:57:59;1.77;;;1.00;;
22571;SDS011;11452;53.368;14.658;2023-03-14T07:03:06;1.13;;;0.93;;
22571;SDS011;11452;53.368;14.658;2023-03-14T07:08:14;0.87;;;0.87;;
22571;SDS011;11452;53.368;14.658;2023-03-14T07:13:20;3.33;;;1.07;;
22571;SDS011;11452;53.368;14.658;2023-03-14T07:18:27;1.97;;;1.20;;
22571;SDS011;11452;53.368;14.658;2023-03-14T07:23:33;2.50;;;1.10;;
22571;SDS011;11452;53.368;14.658;2023-03-14T07:28:39;1.40;;;1.00;;
22571;SDS011;11452;53.368;14.658;2023-03-14T07:33:46;1.33;;;1.10;;
22571;SDS011;11452;53.368;14.658;2023-03-14T07:38:53;1.07;;;0.93;;
22571;SDS011;11452;53.368;14.658;2023-03-14T07:44:09;1.10;;;0.90;;
22571;SDS011;11452;53.368;14.658;2023-03-14T07:49:15;1.00;;;0.80;;
22571;SDS011;11452;53.368;14.658;2023-03-14T07:54:21;0.93;;;0.80;;
22571;SDS011;11452;53.368;14.658;2023-03-14T07:59:27;1.47;;;1.10;;
22571;SDS011;11452;53.368;14.658;2023-03-14T08:04:33;2.13;;;1.70;;
22571;SDS011;11452;53.368;14.658;2023-03-14T08:09:38;3.13;;;1.20;;
22571;SDS011;11452;53.368;14.658;2023-03-14T08:14:44;1.77;;;1.10;;
22571;SDS011;11452;53.368;14.658;2023-03-14T08:19:49;1.20;;;1.10;;
22571;SDS011;11452;53.368;14.658;2023-03-14T08:24:55;2.17;;;0.97;;
22571;SDS011;11452;53.368;14.658;2023-03-14T08:30:00;2.23;;;1.33;;
22571;SDS011;11452;53.368;14.658;2023-03-14T08:35:07;1.57;;;1.30;;
22571;SDS011;11452;53.368;14.658;2023-03-14T08:40:13;0.87;;;0.80;;
22571;SDS011;11452;53.368;14.658;2023-03-14T08:45:20;1.77;;;1.10;;
22571;SDS011;11452;53.368;14.658;2023-03-14T08:50:27;1.47;;;1.27;;
22571;SDS011;11452;53.368;14.658;2023-03-14T08:55:33;1.10;;;0.90;;
22571;SDS011;11452;53.368;14.658;2023-03-14T09:00:38;2.60;;;1.00;;
22571;SDS011;11452;53.368;14.658;2023-03-14T09:05:44;1.80;;;0.90;;
22571;SDS011;11452;53.368;14.658;2023-03-14T09:10:49;1.53;;;0.80;;
22571;SDS011;11452;53.368;14.658;2023-03-14T09:15:55;2.50;;;1.00;;
22571;SDS011;11452;53.368;14.658;2023-03-14T09:21:01;2.47;;;0.97;;
22571;SDS011;11452;53.368;14.658;2023-03-14T09:26:07;1.40;;;0.73;;
22571;SDS011;11452;53.368;14.658;2023-03-14T09:31:12;1.27;;;1.10;;
22571;SDS011;11452;53.368;14.658;2023-03-14T09:36:18;1.10;;;1.00;;
22571;SDS011;11452;53.368;14.658;2023-03-14T09:41:25;1.33;;;0.90;;
22571;SDS011;11452;53.368;14.658;2023-03-14T09:46:34;2.40;;;0.70;;
22571;SDS011;11452;53.368;14.658;2023-03-14T09:51:42;1.67;;;0.93;;
22571;SDS011;11452;53.368;14.658;2023-03-14T09:56:51;1.47;;;0.77;;
22571;SDS011;11452;53.368;14.658;2023-03-14T10:02:01;0.87;;;0.80;;
22571;SDS011;11452;53.368;14.658;2023-03-14T10:07:09;0.90;;;0.73;;
22571;SDS011;11452;53.368;14.658;2023-03-14T10:12:19;1.03;;;0.50;;
22571;SDS011;11452;53.368;14.658;2023-03-14T10:17:26;2.10;;;0.73;;
22571;SDS011;11452;53.368;14.658;2023-03-14T10:22:33;2.40;;;0.60;;
22571;SDS011;11452;53.368;14.658;2023-03-14T10:27:39;0.90;;;0.50;;
22571;SDS011;11452;53.368;14.658;2023-03-14T10:32:45;2.63;;;0.50;;
22571;SDS011;11452;53.368;14.658;2023-03-14T10:37:58;1.77;;;0.77;;
22571;SDS011;11452;53.368;14.658;2023-03-14T10:43:06;0.93;;;0.60;;
22571;SDS011;11452;53.368;14.658;2023-03-14T10:53:23;1.13;;;0.70;;
22571;SDS011;11452;53.368;14.658;2023-03-14T10:58:31;2.30;;;0.80;;
22571;SDS011;11452;53.368;14.658;2023-03-14T11:03:38;1.50;;;0.50;;
22571;SDS011;11452;53.368;14.658;2023-03-14T11:14:15;1.20;;;0.40;;
22571;SDS011;11452;53.368;14.658;2023-03-14T11:19:36;1.33;;;0.60;;
22571;SDS011;11452;53.368;14.658;2023-03-14T11:35:08;1.27;;;0.93;;
22571;SDS011;11452;53.368;14.658;2023-03-14T11:40:27;0.73;;;0.63;;
22571;SDS011;11452;53.368;14.658;2023-03-14T11:45:36;0.87;;;0.50;;
22571;SDS011;11452;53.368;14.658;2023-03-14T11:50:39;0.77;;;0.57;;
22571;SDS011;11452;53.368;14.658;2023-03-14T11:55:47;1.30;;;0.60;;
22571;SDS011;11452;53.368;14.658;2023-03-14T12:00:55;1.10;;;0.60;;
22571;SDS011;11452;53.368;14.658;2023-03-14T12:06:04;0.90;;;0.57;;
22571;SDS011;11452;53.368;14.658;2023-03-14T12:16:55;0.83;;;0.63;;
22571;SDS011;11452;53.368;14.658;2023-03-14T12:27:37;0.80;;;0.60;;
22571;SDS011;11452;53.368;14.658;2023-03-14T12:32:23;3.77;;;1.63;;
22571;SDS011;11452;53.368;14.658;2023-03-14T12:37:35;1.90;;;0.67;;
22571;SDS011;11452;53.368;14.658;2023-03-14T12:42:56;1.20;;;0.70;;
22571;SDS011;11452;53.368;14.658;2023-03-14T13:04:09;1.43;;;1.27;;
22571;SDS011;11452;53.368;14.658;2023-03-14T13:14:35;1.50;;;1.00;;
22571;SDS011;11452;53.368;14.658;2023-03-14T13:19:43;2.13;;;1.07;;
22571;SDS011;11452;53.368;14.658;2023-03-14T13:25:02;1.80;;;1.00;;
22571;SDS011;11452;53.368;14.658;2023-03-14T13:30:20;1.80;;;1.37;;
22571;SDS011;11452;53.368;14.658;2023-03-14T13:35:44;2.90;;;1.30;;
22571;SDS011;11452;53.368;14.658;2023-03-14T13:40:48;2.87;;;1.73;;
22571;SDS011;11452;53.368;14.658;2023-03-14T13:45:56;2.10;;;1.23;;
22571;SDS011;11452;53.368;14.658;2023-03-14T13:51:10;2.97;;;1.20;;
22571;SDS011;11452;53.368;14.658;2023-03-14T13:56:22;3.27;;;1.40;;
22571;SDS011;11452;53.368;14.658;2023-03-14T14:01:33;1.67;;;1.00;;
22571;SDS011;11452;53.368;14.658;2023-03-14T14:06:52;1.63;;;1.00;;
22571;SDS011;11452;53.368;14.658;2023-03-14T14:12:02;2.10;;;1.40;;
22571;SDS011;11452;53.368;14.658;2023-03-14T14:17:18;1.80;;;0.90;;
22571;SDS011;11452;53.368;14.658;2023-03-14T14:22:26;2.67;;;1.00;;
22571;SDS011;11452;53.368;14.658;2023-03-14T14:27:35;2.10;;;1.10;;
22571;SDS011;11452;53.368;14.658;2023-03-14T14:32:42;1.57;;;1.03;;
22571;SDS011;11452;53.368;14.658;2023-03-14T14:37:49;1.00;;;0.97;;
22571;SDS011;11452;53.368;14.658;2023-03-14T14:42:55;1.20;;;1.10;;
22571;SDS011;11452;53.368;14.658;2023-03-14T14:48:09;1.53;;;1.30;;
22571;SDS011;11452;53.368;14.658;2023-03-14T14:58:44;5.37;;;1.40;;
22571;SDS011;11452;53.368;14.658;2023-03-14T15:03:51;3.37;;;1.73;;
22571;SDS011;11452;53.368;14.658;2023-03-14T15:08:58;2.43;;;1.70;;
22571;SDS011;11452;53.368;14.658;2023-03-14T15:14:03;2.40;;;1.40;;
22571;SDS011;11452;53.368;14.658;2023-03-14T15:19:11;4.53;;;1.37;;
22571;SDS011;11452;53.368;14.658;2023-03-14T15:24:21;1.63;;;1.20;;
22571;SDS011;11452;53.368;14.658;2023-03-14T15:29:26;2.10;;;1.10;;
22571;SDS011;11452;53.368;14.658;2023-03-14T15:34:33;0.80;;;0.73;;
22571;SDS011;11452;53.368;14.658;2023-03-14T15:39:39;1.03;;;0.70;;
22571;SDS011;11452;53.368;14.658;2023-03-14T15:44:44;2.67;;;0.80;;
22571;SDS011;11452;53.368;14.658;2023-03-14T15:49:51;2.33;;;0.90;;
22571;SDS011;11452;53.368;14.658;2023-03-14T15:54:57;1.27;;;0.80;;
22571;SDS011;11452;53.368;14.658;2023-03-14T16:00:03;0.97;;;0.60;;
22571;SDS011;11452;53.368;14.658;2023-03-14T16:05:12;0.40;;;0.40;;
22571;SDS011;11452;53.368;14.658;2023-03-14T16:10:18;0.97;;;0.87;;
22571;SDS011;11452;53.368;14.658;2023-03-14T16:15:24;0.90;;;0.40;;
22571;SDS011;11452;53.368;14.658;2023-03-14T16:20:30;0.80;;;0.50;;
22571;SDS011;11452;53.368;14.658;2023-03-14T16:25:37;1.50;;;1.40;;
22571;SDS011;11452;53.368;14.658;2023-03-14T16:30:43;1.17;;;0.53;;
22571;SDS011;11452;53.368;14.658;2023-03-14T16:35:54;1.37;;;0.77;;
22571;SDS011;11452;53.368;14.658;2023-03-14T16:41:08;2.70;;;1.77;;
22571;SDS011;11452;53.368;14.658;2023-03-14T16:46:17;2.63;;;1.90;;
22571;SDS011;11452;53.368;14.658;2023-03-14T16:51:25;1.97;;;1.37;;
22571;SDS011;11452;53.368;14.658;2023-03-14T16:56:31;2.27;;;1.40;;
22571;SDS011;11452;53.368;14.658;2023-03-14T17:01:36;1.40;;;1.00;;
22571;SDS011;11452;53.368;14.658;2023-03-14T17:06:43;1.10;;;1.00;;
22571;SDS011;11452;53.368;14.658;2023-03-14T17:11:49;1.47;;;1.10;;
22571;SDS011;11452;53.368;14.658;2023-03-14T17:16:54;1.37;;;0.70;;
22571;SDS011;11452;53.368;14.658;2023-03-14T17:22:00;1.30;;;0.83;;
22571;SDS011;11452;53.368;14.658;2023-03-14T17:27:07;1.40;;;0.73;;
22571;SDS011;11452;53.368;14.658;2023-03-14T17:32:16;0.70;;;0.53;;
22571;SDS011;11452;53.368;14.658;2023-03-14T17:37:22;1.03;;;0.97;;
22571;SDS011;11452;53.368;14.658;2023-03-14T17:42:28;1.77;;;1.50;;
22571;SDS011;11452;53.368;14.658;2023-03-14T17:47:33;1.53;;;1.00;;
22571;SDS011;11452;53.368;14.658;2023-03-14T17:52:39;2.80;;;1.60;;
22571;SDS011;11452;53.368;14.658;2023-03-14T17:57:45;3.17;;;1.83;;
22571;SDS011;11452;53.368;14.658;2023-03-14T18:02:50;2.87;;;1.80;;
22571;SDS011;11452;53.368;14.658;2023-03-14T18:07:56;2.40;;;1.50;;
22571;SDS011;11452;53.368;14.658;2023-03-14T18:13:02;3.17;;;1.57;;
22571;SDS011;11452;53.368;14.658;2023-03-14T18:18:09;2.10;;;1.60;;
22571;SDS011;11452;53.368;14.658;2023-03-14T18:23:15;3.07;;;1.10;;
22571;SDS011;11452;53.368;14.658;2023-03-14T18:28:20;1.93;;;1.73;;
22571;SDS011;11452;53.368;14.658;2023-03-14T18:33:26;2.37;;;1.97;;
22571;SDS011;11452;53.368;14.658;2023-03-14T18:38:31;1.80;;;1.43;;
22571;SDS011;11452;53.368;14.658;2023-03-14T18:43:37;2.67;;;1.70;;
22571;SDS011;11452;53.368;14.658;2023-03-14T18:48:42;3.20;;;1.67;;
22571;SDS011;11452;53.368;14.658;2023-03-14T18:53:48;5.37;;;2.80;;
22571;SDS011;11452;53.368;14.658;2023-03-14T18:58:55;4.03;;;2.40;;
22571;SDS011;11452;53.368;14.658;2023-03-14T19:04:02;4.00;;;3.47;;
22571;SDS011;11452;53.368;14.658;2023-03-14T19:09:12;5.73;;;2.80;;
22571;SDS011;11452;53.368;14.658;2023-03-14T19:14:18;3.40;;;3.10;;
22571;SDS011;11452;53.368;14.658;2023-03-14T19:19:24;6.17;;;3.07;;
22571;SDS011;11452;53.368;14.658;2023-03-14T19:24:30;5.03;;;2.63;;
22571;SDS011;11452;53.368;14.658;2023-03-14T19:29:37;5.23;;;2.30;;
22571;SDS011;11452;53.368;14.658;2023-03-14T19:34:44;4.27;;;2.70;;
22571;SDS011;11452;53.368;14.658;2023-03-14T19:39:50;5.07;;;2.80;;
22571;SDS011;11452;53.368;14.658;2023-03-14T19:44:56;5.07;;;2.57;;
22571;SDS011;11452;53.368;14.658;2023-03-14T19:50:02;11.87;;;2.47;;
22571;SDS011;11452;53.368;14.658;2023-03-14T19:55:07;6.87;;;2.30;;
22571;SDS011;11452;53.368;14.658;2023-03-14T20:00:13;3.60;;;2.40;;
22571;SDS011;11452;53.368;14.658;2023-03-14T20:05:19;2.73;;;1.63;;
22571;SDS011;11452;53.368;14.658;2023-03-14T20:10:26;9.97;;;2.63;;
22571;SDS011;11452;53.368;14.658;2023-03-14T20:15:32;6.53;;;2.87;;
22571;SDS011;11452;53.368;14.658;2023-03-14T20:20:39;6.70;;;2.10;;
22571;SDS011;11452;53.368;14.658;2023-03-14T20:25:51;5.83;;;1.90;;
22571;SDS011;11452;53.368;14.658;2023-03-14T20:30:58;9.33;;;2.23;;
22571;SDS011;11452;53.368;14.658;2023-03-14T20:36:04;5.33;;;1.80;;
22571;SDS011;11452;53.368;14.658;2023-03-14T20:41:11;8.63;;;2.30;;
22571;SDS011;11452;53.368;14.658;2023-03-14T20:46:16;4.07;;;1.57;;
22571;SDS011;11452;53.368;14.658;2023-03-14T20:51:22;8.33;;;2.00;;
22571;SDS011;11452;53.368;14.658;2023-03-14T20:56:28;4.50;;;1.60;;
22571;SDS011;11452;53.368;14.658;2023-03-14T21:01:34;4.17;;;2.03;;
22571;SDS011;11452;53.368;14.658;2023-03-14T21:06:57;11.00;;;1.80;;
22571;SDS011;11452;53.368;14.658;2023-03-14T21:12:03;8.33;;;2.10;;
22571;SDS011;11452;53.368;14.658;2023-03-14T21:17:09;3.50;;;1.50;;
22571;SDS011;11452;53.368;14.658;2023-03-14T21:22:14;4.83;;;1.47;;
22571;SDS011;11452;53.368;14.658;2023-03-14T21:27:21;6.63;;;2.77;;
22571;SDS011;11452;53.368;14.658;2023-03-14T21:32:27;7.80;;;2.40;;
22571;SDS011;11452;53.368;14.658;2023-03-14T21:37:32;3.93;;;1.80;;
22571;SDS011;11452;53.368;14.658;2023-03-14T21:42:38;7.40;;;1.73;;
22571;SDS011;11452;53.368;14.658;2023-03-14T21:47:43;6.07;;;2.00;;
22571;SDS011;11452;53.368;14.658;2023-03-14T21:52:50;4.37;;;2.03;;
22571;SDS011;11452;53.368;14.658;2023-03-14T21:57:58;7.50;;;2.27;;
22571;SDS011;11452;53.368;14.658;2023-03-14T22:03:05;6.73;;;1.80;;
22571;SDS011;11452;53.368;14.658;2023-03-14T22:08:13;6.70;;;2.13;;
22571;SDS011;11452;53.368;14.658;2023-03-14T22:13:20;7.63;;;2.23;;
22571;SDS011;11452;53.368;14.658;2023-03-14T22:18:28;4.93;;;2.47;;
22571;SDS011;11452;53.368;14.658;2023-03-14T22:23:34;6.30;;;2.10;;
22571;SDS011;11452;53.368;14.658;2023-03-14T22:28:39;4.90;;;1.63;;
22571;SDS011;11452;53.368;14.658;2023-03-14T22:33:45;7.43;;;1.57;;
22571;SDS011;11452;53.368;14.658;2023-03-14T22:38:50;3.30;;;1.33;;
22571;SDS011;11452;53.368;14.658;2023-03-14T22:43:56;4.97;;;1.73;;
22571;SDS011;11452;53.368;14.658;2023-03-14T22:49:01;5.10;;;1.67;;
22571;SDS011;11452;53.368;14.658;2023-03-14T22:54:07;4.23;;;1.67;;
22571;SDS011;11452;53.368;14.658;2023-03-14T22:59:13;4.07;;;1.30;;
22571;SDS011;11452;53.368;14.658;2023-03-14T23:04:18;4.63;;;1.70;;
22571;SDS011;11452;53.368;14.658;2023-03-14T23:09:24;4.23;;;1.30;;
22571;SDS011;11452;53.368;14.658;2023-03-14T23:14:29;3.63;;;1.47;;
22571;SDS011;11452;53.368;14.658;2023-03-14T23:19:35;10.53;;;2.23;;
22571;SDS011;11452;53.368;14.658;2023-03-14T23:24:42;2.67;;;1.53;;
22571;SDS011;11452;53.368;14.658;2023-03-14T23:29:49;6.07;;;2.00;;
22571;SDS011;11452;53.368;14.658;2023-03-14T23:34:55;6.60;;;1.83;;
22571;SDS011;11452;53.368;14.658;2023-03-14T23:40:01;7.03;;;1.50;;
22571;SDS011;11452;53.368;14.658;2023-03-14T23:45:08;4.23;;;1.47;;
22571;SDS011;11452;53.368;14.658;2023-03-14T23:50:16;6.10;;;1.60;;
22571;SDS011;11452;53.368;14.658;2023-03-14T23:55:22;9.50;;;1.43;;
